首页
METAR-TAF:

METAR-TAF

机场 :

烏日霍羅德國際機場

乌日霍罗德, 乌克兰

纬度: 48-38-05N, 经度: 022-15-53E, 海拔: 117米

当前天气观测

该预报发布于13小时和10分钟前的16:00 UTC
风速8节,风向东转东南
温度 6°C
湿度 81%
气压 1008 hPa
能見度: 8000
阴天层高于3600英尺
小雨

METAR: UKLU 221600Z 12004MPS 8000 -RA OVC036 06/03 Q1008 NOSIG

时间: 07:10 (05:10 UTC)

预报

该预报发布于15小时和8分钟前的14:02 UTC
预报有效从22日的 15点(UTC)到 22日的 24点(UTC)
风速10节,风向东南
能见度10公里或以上
多云层高于4000英尺
小雨

TAF: UKLU 221402Z 2215/2224 13005MPS 9999 -RA BKN040

超过4000个机场的气象观测和天气预报(METAR&TAF报告)。

可查询的气象台以黄色和红色小点在地图上表示。

将鼠标移到小点上方,可查看气象台名称。

然后点击查看天气观测和预报。

如需切换地图:点击带黑十字的绿色按钮放大地图;点击带横线的绿色按钮缩小地图;或者点击绿色箭头查看邻近地区的地图。


METAR-TAF: